sensor_id;sensor_type;location;lat;lon;timestamp;pressure;altitude;pressure_sealevel;temperature;humidity
59650;BME280;46162;57.568;25.814;2023-01-26T00:00:17;101281.63;;;-0.96;100.00
59650;BME280;46162;57.568;25.814;2023-01-26T00:02:46;101289.63;;;-0.98;100.00
59650;BME280;46162;57.568;25.814;2023-01-26T00:05:15;101283.47;;;-0.98;100.00
59650;BME280;46162;57.568;25.814;2023-01-26T00:07:43;101292.34;;;-0.99;100.00
59650;BME280;46162;57.568;25.814;2023-01-26T00:10:12;101281.72;;;-0.99;100.00
59650;BME280;46162;57.568;25.814;2023-01-26T00:12:41;101279.03;;;-0.98;100.00
59650;BME280;46162;57.568;25.814;2023-01-26T00:15:10;101272.94;;;-1.00;100.00
59650;BME280;46162;57.568;25.814;2023-01-26T00:17:40;101275.66;;;-1.01;100.00
59650;BME280;46162;57.568;25.814;2023-01-26T00:20:10;101262.41;;;-1.01;100.00
59650;BME280;46162;57.568;25.814;2023-01-26T00:22:39;101262.41;;;-1.01;100.00
59650;BME280;46162;57.568;25.814;2023-01-26T00:25:08;101274.84;;;-1.03;100.00
59650;BME280;46162;57.568;25.814;2023-01-26T00:27:36;101273.91;;;-1.02;100.00
59650;BME280;46162;57.568;25.814;2023-01-26T00:30:06;101275.66;;;-1.01;100.00
59650;BME280;46162;57.568;25.814;2023-01-26T00:32:36;101271.25;;;-1.02;100.00
59650;BME280;46162;57.568;25.814;2023-01-26T00:35:07;101276.50;;;-1.01;100.00
59650;BME280;46162;57.568;25.814;2023-01-26T00:37:36;101269.56;;;-1.03;100.00
59650;BME280;46162;57.568;25.814;2023-01-26T00:40:05;101270.47;;;-1.04;100.00
59650;BME280;46162;57.568;25.814;2023-01-26T00:42:34;101262.50;;;-1.04;100.00
59650;BME280;46162;57.568;25.814;2023-01-26T00:45:04;101271.31;;;-1.04;100.00
59650;BME280;46162;57.568;25.814;2023-01-26T00:47:32;101267.81;;;-1.04;100.00
59650;BME280;46162;57.568;25.814;2023-01-26T00:50:01;101277.56;;;-1.05;100.00
59650;BME280;46162;57.568;25.814;2023-01-26T00:52:31;101273.19;;;-1.06;100.00
59650;BME280;46162;57.568;25.814;2023-01-26T00:55:00;101272.25;;;-1.05;100.00
59650;BME280;46162;57.568;25.814;2023-01-26T00:57:29;101263.50;;;-1.07;100.00
59650;BME280;46162;57.568;25.814;2023-01-26T00:59:57;101253.75;;;-1.06;100.00
59650;BME280;46162;57.568;25.814;2023-01-26T01:02:26;101257.28;;;-1.06;100.00
59650;BME280;46162;57.568;25.814;2023-01-26T01:04:54;101256.41;;;-1.06;100.00
59650;BME280;46162;57.568;25.814;2023-01-26T01:07:25;101251.19;;;-1.08;100.00
59650;BME280;46162;57.568;25.814;2023-01-26T01:09:55;101268.81;;;-1.07;100.00
59650;BME280;46162;57.568;25.814;2023-01-26T01:12:23;101258.19;;;-1.07;100.00
59650;BME280;46162;57.568;25.814;2023-01-26T01:14:53;101252.97;;;-1.09;100.00
59650;BME280;46162;57.568;25.814;2023-01-26T01:17:23;101251.19;;;-1.08;100.00
59650;BME280;46162;57.568;25.814;2023-01-26T01:19:51;101241.44;;;-1.08;100.00
59650;BME280;46162;57.568;25.814;2023-01-26T01:22:23;101238.78;;;-1.08;100.00
59650;BME280;46162;57.568;25.814;2023-01-26T01:24:52;101238.84;;;-1.09;100.00
59650;BME280;46162;57.568;25.814;2023-01-26T01:27:22;101233.50;;;-1.08;100.00
59650;BME280;46162;57.568;25.814;2023-01-26T01:29:51;101242.38;;;-1.09;100.00
59650;BME280;46162;57.568;25.814;2023-01-26T01:32:20;101237.09;;;-1.09;100.00
59650;BME280;46162;57.568;25.814;2023-01-26T01:34:49;101241.50;;;-1.09;100.00
59650;BME280;46162;57.568;25.814;2023-01-26T01:37:17;101238.00;;;-1.10;100.00
59650;BME280;46162;57.568;25.814;2023-01-26T01:39:47;101243.28;;;-1.10;100.00
59650;BME280;46162;57.568;25.814;2023-01-26T01:42:16;101249.53;;;-1.11;100.00
59650;BME280;46162;57.568;25.814;2023-01-26T01:48:03;101233.69;;;-1.12;100.00
59650;BME280;46162;57.568;25.814;2023-01-26T01:50:36;101231.88;;;-1.12;100.00
59650;BME280;46162;57.568;25.814;2023-01-26T01:53:07;101226.53;;;-1.10;100.00
59650;BME280;46162;57.568;25.814;2023-01-26T01:55:40;101210.69;;;-1.12;100.00
59650;BME280;46162;57.568;25.814;2023-01-26T01:58:09;101209.78;;;-1.11;100.00
59650;BME280;46162;57.568;25.814;2023-01-26T02:00:39;101214.22;;;-1.11;100.00
59650;BME280;46162;57.568;25.814;2023-01-26T02:03:08;101212.47;;;-1.12;100.00
59650;BME280;46162;57.568;25.814;2023-01-26T02:05:51;101205.38;;;-1.12;100.00
59650;BME280;46162;57.568;25.814;2023-01-26T02:08:26;101201.88;;;-1.12;100.00
59650;BME280;46162;57.568;25.814;2023-01-26T02:10:59;101190.44;;;-1.13;100.00
59650;BME280;46162;57.568;25.814;2023-01-26T02:13:30;101186.06;;;-1.14;100.00
59650;BME280;46162;57.568;25.814;2023-01-26T02:16:02;101189.50;;;-1.12;100.00
59650;BME280;46162;57.568;25.814;2023-01-26T02:18:31;101178.91;;;-1.12;100.00
59650;BME280;46162;57.568;25.814;2023-01-26T02:21:01;101181.53;;;-1.12;100.00
59650;BME280;46162;57.568;25.814;2023-01-26T02:23:39;101185.97;;;-1.12;100.00
59650;BME280;46162;57.568;25.814;2023-01-26T02:26:13;101194.03;;;-1.14;100.00
59650;BME280;46162;57.568;25.814;2023-01-26T02:28:43;101191.28;;;-1.12;100.00
59650;BME280;46162;57.568;25.814;2023-01-26T02:31:14;101184.28;;;-1.13;100.00
59650;BME280;46162;57.568;25.814;2023-01-26T02:33:44;101185.13;;;-1.13;100.00
59650;BME280;46162;57.568;25.814;2023-01-26T02:36:18;101181.53;;;-1.12;100.00
59650;BME280;46162;57.568;25.814;2023-01-26T02:38:52;101191.28;;;-1.12;100.00
59650;BME280;46162;57.568;25.814;2023-01-26T02:41:24;101193.06;;;-1.13;100.00
59650;BME280;46162;57.568;25.814;2023-01-26T02:44:12;101195.72;;;-1.13;100.00
59650;BME280;46162;57.568;25.814;2023-01-26T02:46:41;101196.66;;;-1.14;100.00
59650;BME280;46162;57.568;25.814;2023-01-26T02:49:10;101186.94;;;-1.13;100.00
59650;BME280;46162;57.568;25.814;2023-01-26T02:51:56;101185.97;;;-1.12;100.00
59650;BME280;46162;57.568;25.814;2023-01-26T02:54:25;101185.13;;;-1.13;100.00
59650;BME280;46162;57.568;25.814;2023-01-26T02:57:13;101179.84;;;-1.13;100.00
59650;BME280;46162;57.568;25.814;2023-01-26T02:59:43;101177.22;;;-1.14;100.00
59650;BME280;46162;57.568;25.814;2023-01-26T03:02:13;101172.81;;;-1.14;100.00
59650;BME280;46162;57.568;25.814;2023-01-26T03:04:42;101171.94;;;-1.14;100.00
59650;BME280;46162;57.568;25.814;2023-01-26T03:07:12;101173.69;;;-1.13;100.00
59650;BME280;46162;57.568;25.814;2023-01-26T03:09:41;101179.84;;;-1.13;100.00
59650;BME280;46162;57.568;25.814;2023-01-26T03:12:09;101177.97;;;-1.11;100.00
59650;BME280;46162;57.568;25.814;2023-01-26T03:14:40;101175.34;;;-1.11;100.00
59650;BME280;46162;57.568;25.814;2023-01-26T03:17:09;101172.69;;;-1.11;100.00
59650;BME280;46162;57.568;25.814;2023-01-26T03:19:37;101170.03;;;-1.11;100.00
59650;BME280;46162;57.568;25.814;2023-01-26T03:22:24;101167.38;;;-1.11;100.00
59650;BME280;46162;57.568;25.814;2023-01-26T03:25:09;101169.19;;;-1.11;100.00
59650;BME280;46162;57.568;25.814;2023-01-26T03:27:57;101163.88;;;-1.11;100.00
59650;BME280;46162;57.568;25.814;2023-01-26T03:30:28;101158.59;;;-1.11;100.00
59650;BME280;46162;57.568;25.814;2023-01-26T03:32:59;101167.38;;;-1.11;100.00
59650;BME280;46162;57.568;25.814;2023-01-26T03:35:28;101160.34;;;-1.12;100.00
59650;BME280;46162;57.568;25.814;2023-01-26T03:37:56;101170.09;;;-1.12;100.00
59650;BME280;46162;57.568;25.814;2023-01-26T03:40:38;101158.50;;;-1.10;100.00
59650;BME280;46162;57.568;25.814;2023-01-26T03:43:25;101153.19;;;-1.10;100.00
59650;BME280;46162;57.568;25.814;2023-01-26T03:46:12;101147.91;;;-1.10;100.00
59650;BME280;46162;57.568;25.814;2023-01-26T03:48:58;101138.16;;;-1.09;100.00
59650;BME280;46162;57.568;25.814;2023-01-26T03:51:45;101137.28;;;-1.10;100.00
59650;BME280;46162;57.568;25.814;2023-01-26T03:54:31;101129.28;;;-1.08;100.00
59650;BME280;46162;57.568;25.814;2023-01-26T03:57:17;101136.44;;;-1.10;100.00
59650;BME280;46162;57.568;25.814;2023-01-26T03:59:47;101132.84;;;-1.09;100.00
59650;BME280;46162;57.568;25.814;2023-01-26T04:02:20;101132.78;;;-1.08;100.00
59650;BME280;46162;57.568;25.814;2023-01-26T04:05:10;101138.09;;;-1.08;100.00
59650;BME280;46162;57.568;25.814;2023-01-26T04:08:01;101131.84;;;-1.06;100.00
59650;BME280;46162;57.568;25.814;2023-01-26T04:10:59;101141.69;;;-1.09;100.00
59650;BME280;46162;57.568;25.814;2023-01-26T04:13:29;101128.44;;;-1.09;100.00
59650;BME280;46162;57.568;25.814;2023-01-26T04:16:26;101126.63;;;-1.08;100.00
59650;BME280;46162;57.568;25.814;2023-01-26T04:19:13;101127.50;;;-1.08;100.00
59650;BME280;46162;57.568;25.814;2023-01-26T04:22:02;101124.91;;;-1.09;100.00
59650;BME280;46162;57.568;25.814;2023-01-26T04:24:33;101116.09;;;-1.10;100.00
59650;BME280;46162;57.568;25.814;2023-01-26T04:27:03;101129.28;;;-1.08;100.00
59650;BME280;46162;57.568;25.814;2023-01-26T04:29:35;101130.94;;;-1.05;100.00
59650;BME280;46162;57.568;25.814;2023-01-26T04:32:05;101132.75;;;-1.06;100.00
59650;BME280;46162;57.568;25.814;2023-01-26T04:34:36;101115.09;;;-1.07;100.00
59650;BME280;46162;57.568;25.814;2023-01-26T04:37:11;101119.53;;;-1.08;100.00
59650;BME280;46162;57.568;25.814;2023-01-26T04:39:46;101120.41;;;-1.07;100.00
59650;BME280;46162;57.568;25.814;2023-01-26T04:42:21;101118.59;;;-1.06;100.00
59650;BME280;46162;57.568;25.814;2023-01-26T04:45:00;101107.16;;;-1.07;100.00
59650;BME280;46162;57.568;25.814;2023-01-26T04:47:33;101113.31;;;-1.06;100.00
59650;BME280;46162;57.568;25.814;2023-01-26T04:50:05;101099.94;;;-1.03;100.00
59650;BME280;46162;57.568;25.814;2023-01-26T04:52:34;101100.00;;;-1.05;100.00
59650;BME280;46162;57.568;25.814;2023-01-26T04:55:04;101103.66;;;-1.08;100.00
59650;BME280;46162;57.568;25.814;2023-01-26T04:57:36;101103.50;;;-1.04;100.00
59650;BME280;46162;57.568;25.814;2023-01-26T05:00:06;101092.09;;;-1.06;100.00
59650;BME280;46162;57.568;25.814;2023-01-26T05:02:37;101098.19;;;-1.04;100.00
59650;BME280;46162;57.568;25.814;2023-01-26T05:05:14;101104.44;;;-1.05;100.00
59650;BME280;46162;57.568;25.814;2023-01-26T05:07:45;101108.00;;;-1.06;100.00
59650;BME280;46162;57.568;25.814;2023-01-26T05:10:17;101103.66;;;-1.08;100.00
59650;BME280;46162;57.568;25.814;2023-01-26T05:13:05;101114.25;;;-1.08;100.00
59650;BME280;46162;57.568;25.814;2023-01-26T05:15:55;101099.19;;;-1.07;100.00
59650;BME280;46162;57.568;25.814;2023-01-26T05:18:56;101095.69;;;-1.08;100.00
59650;BME280;46162;57.568;25.814;2023-01-26T05:21:47;101107.00;;;-1.04;100.00
59650;BME280;46162;57.568;25.814;2023-01-26T05:24:16;101108.94;;;-1.08;100.00
59650;BME280;46162;57.568;25.814;2023-01-26T05:27:08;101108.94;;;-1.08;100.00
59650;BME280;46162;57.568;25.814;2023-01-26T05:29:59;101109.81;;;-1.07;100.00
59650;BME280;46162;57.568;25.814;2023-01-26T05:32:33;101108.09;;;-1.08;100.00
59650;BME280;46162;57.568;25.814;2023-01-26T05:35:02;101113.38;;;-1.08;100.00
59650;BME280;46162;57.568;25.814;2023-01-26T05:37:36;101116.91;;;-1.08;100.00
59650;BME280;46162;57.568;25.814;2023-01-26T05:40:06;101115.19;;;-1.09;100.00
59650;BME280;46162;57.568;25.814;2023-01-26T05:42:36;101123.13;;;-1.09;100.00
59650;BME280;46162;57.568;25.814;2023-01-26T05:45:10;101129.34;;;-1.10;100.00
59650;BME280;46162;57.568;25.814;2023-01-26T05:47:39;101122.25;;;-1.09;100.00
59650;BME280;46162;57.568;25.814;2023-01-26T05:50:10;101126.69;;;-1.10;100.00
59650;BME280;46162;57.568;25.814;2023-01-26T05:52:43;101124.03;;;-1.10;100.00
59650;BME280;46162;57.568;25.814;2023-01-26T05:55:12;101124.03;;;-1.10;100.00
59650;BME280;46162;57.568;25.814;2023-01-26T05:57:42;101125.00;;;-1.11;100.00
59650;BME280;46162;57.568;25.814;2023-01-26T06:00:12;101123.25;;;-1.12;100.00
59650;BME280;46162;57.568;25.814;2023-01-26T06:02:48;101127.78;;;-1.14;100.00
59650;BME280;46162;57.568;25.814;2023-01-26T06:05:17;101129.50;;;-1.13;100.00
59650;BME280;46162;57.568;25.814;2023-01-26T06:07:49;101138.38;;;-1.14;100.00
59650;BME280;46162;57.568;25.814;2023-01-26T06:10:24;101130.47;;;-1.15;100.00
59650;BME280;46162;57.568;25.814;2023-01-26T06:13:01;101124.31;;;-1.16;100.00
59650;BME280;46162;57.568;25.814;2023-01-26T06:15:40;101133.97;;;-1.15;100.00
59650;BME280;46162;57.568;25.814;2023-01-26T06:18:09;101139.28;;;-1.15;100.00
59650;BME280;46162;57.568;25.814;2023-01-26T06:20:41;101140.22;;;-1.16;100.00
59650;BME280;46162;57.568;25.814;2023-01-26T06:23:12;101145.53;;;-1.16;100.00
59650;BME280;46162;57.568;25.814;2023-01-26T06:25:45;101138.56;;;-1.18;100.00
59650;BME280;46162;57.568;25.814;2023-01-26T06:28:14;101139.44;;;-1.18;100.00
59650;BME280;46162;57.568;25.814;2023-01-26T06:30:43;101138.47;;;-1.17;100.00
59650;BME280;46162;57.568;25.814;2023-01-26T06:33:13;101132.38;;;-1.19;100.00
59650;BME280;46162;57.568;25.814;2023-01-26T06:35:42;101140.22;;;-1.16;100.00
59650;BME280;46162;57.568;25.814;2023-01-26T06:38:13;101137.56;;;-1.16;100.00
59650;BME280;46162;57.568;25.814;2023-01-26T06:40:43;101142.88;;;-1.16;100.00
59650;BME280;46162;57.568;25.814;2023-01-26T06:43:13;101137.56;;;-1.16;100.00
59650;BME280;46162;57.568;25.814;2023-01-26T06:45:42;101146.44;;;-1.17;100.00
59650;BME280;46162;57.568;25.814;2023-01-26T06:48:10;101147.38;;;-1.18;100.00
59650;BME280;46162;57.568;25.814;2023-01-26T06:50:39;101150.03;;;-1.18;100.00
59650;BME280;46162;57.568;25.814;2023-01-26T06:53:25;101146.44;;;-1.17;100.00
59650;BME280;46162;57.568;25.814;2023-01-26T06:56:15;101145.53;;;-1.16;100.00
59650;BME280;46162;57.568;25.814;2023-01-26T06:58:55;101138.56;;;-1.18;100.00
59650;BME280;46162;57.568;25.814;2023-01-26T07:01:59;101134.25;;;-1.21;100.00
59650;BME280;46162;57.568;25.814;2023-01-26T07:04:29;101134.38;;;-1.24;100.00
59650;BME280;46162;57.568;25.814;2023-01-26T07:06:58;101139.63;;;-1.22;100.00
59650;BME280;46162;57.568;25.814;2023-01-26T07:09:30;101133.50;;;-1.24;100.00
59650;BME280;46162;57.568;25.814;2023-01-26T07:12:04;101131.81;;;-1.25;100.00
59650;BME280;46162;57.568;25.814;2023-01-26T07:14:34;101140.59;;;-1.25;100.00
59650;BME280;46162;57.568;25.814;2023-01-26T07:17:03;101140.59;;;-1.25;100.00
59650;BME280;46162;57.568;25.814;2023-01-26T07:19:32;101144.13;;;-1.24;100.00
59650;BME280;46162;57.568;25.814;2023-01-26T07:22:01;101140.59;;;-1.25;100.00
59650;BME280;46162;57.568;25.814;2023-01-26T07:24:31;101145.91;;;-1.25;100.00
59650;BME280;46162;57.568;25.814;2023-01-26T07:27:03;101146.84;;;-1.26;100.00
59650;BME280;46162;57.568;25.814;2023-01-26T07:29:32;101141.47;;;-1.24;100.00
59650;BME280;46162;57.568;25.814;2023-01-26T07:32:01;101145.97;;;-1.26;100.00
59650;BME280;46162;57.568;25.814;2023-01-26T07:34:30;101140.81;;;-1.30;100.00
59650;BME280;46162;57.568;25.814;2023-01-26T07:36:59;101142.53;;;-1.28;100.00
59650;BME280;46162;57.568;25.814;2023-01-26T07:39:27;101142.53;;;-1.28;100.00
59650;BME280;46162;57.568;25.814;2023-01-26T07:41:58;101145.25;;;-1.30;100.00
59650;BME280;46162;57.568;25.814;2023-01-26T07:44:45;101142.59;;;-1.30;100.00
59650;BME280;46162;57.568;25.814;2023-01-26T07:47:16;101140.88;;;-1.31;100.00
59650;BME280;46162;57.568;25.814;2023-01-26T07:49:46;101145.19;;;-1.28;100.00
59650;BME280;46162;57.568;25.814;2023-01-26T07:52:15;101145.25;;;-1.30;100.00
59650;BME280;46162;57.568;25.814;2023-01-26T07:54:44;101145.25;;;-1.30;100.00
59650;BME280;46162;57.568;25.814;2023-01-26T07:57:14;101153.13;;;-1.28;100.00
59650;BME280;46162;57.568;25.814;2023-01-26T07:59:43;101155.84;;;-1.30;100.00
59650;BME280;46162;57.568;25.814;2023-01-26T08:02:12;101157.63;;;-1.31;100.00
59650;BME280;46162;57.568;25.814;2023-01-26T08:04:41;101158.53;;;-1.32;100.00
59650;BME280;46162;57.568;25.814;2023-01-26T08:07:09;101154.03;;;-1.30;100.00
59650;BME280;46162;57.568;25.814;2023-01-26T08:09:41;101162.06;;;-1.31;100.00
59650;BME280;46162;57.568;25.814;2023-01-26T08:12:14;101161.13;;;-1.30;100.00
59650;BME280;46162;57.568;25.814;2023-01-26T08:14:43;101161.28;;;-1.33;100.00
59650;BME280;46162;57.568;25.814;2023-01-26T08:17:13;101163.78;;;-1.30;100.00
59650;BME280;46162;57.568;25.814;2023-01-26T08:19:43;101164.72;;;-1.31;100.00
59650;BME280;46162;57.568;25.814;2023-01-26T08:22:12;101160.28;;;-1.31;100.00
59650;BME280;46162;57.568;25.814;2023-01-26T08:24:41;101168.22;;;-1.31;100.00
59650;BME280;46162;57.568;25.814;2023-01-26T08:27:10;101169.94;;;-1.30;100.00
59650;BME280;46162;57.568;25.814;2023-01-26T08:29:40;101171.72;;;-1.30;100.00
59650;BME280;46162;57.568;25.814;2023-01-26T08:32:12;101180.63;;;-1.31;100.00
59650;BME280;46162;57.568;25.814;2023-01-26T08:34:41;101165.59;;;-1.31;100.00
59650;BME280;46162;57.568;25.814;2023-01-26T08:37:10;101171.72;;;-1.30;100.00
59650;BME280;46162;57.568;25.814;2023-01-26T08:39:38;101176.19;;;-1.31;100.00
59650;BME280;46162;57.568;25.814;2023-01-26T08:42:07;101173.56;;;-1.32;100.00
59650;BME280;46162;57.568;25.814;2023-01-26T08:44:36;101180.66;;;-1.33;100.00
59650;BME280;46162;57.568;25.814;2023-01-26T08:47:08;101178.75;;;-1.29;100.00
59650;BME280;46162;57.568;25.814;2023-01-26T08:49:37;101178.88;;;-1.32;100.00
59650;BME280;46162;57.568;25.814;2023-01-26T08:52:06;101180.63;;;-1.31;100.00
59650;BME280;46162;57.568;25.814;2023-01-26T08:54:34;101185.91;;;-1.31;100.00
59650;BME280;46162;57.568;25.814;2023-01-26T08:57:03;101189.34;;;-1.29;100.00
59650;BME280;46162;57.568;25.814;2023-01-26T08:59:32;101190.31;;;-1.32;100.00
59650;BME280;46162;57.568;25.814;2023-01-26T09:02:01;101185.03;;;-1.32;100.00
59650;BME280;46162;57.568;25.814;2023-01-26T09:04:32;101183.28;;;-1.31;100.00
59650;BME280;46162;57.568;25.814;2023-01-26T09:07:00;101183.28;;;-1.31;100.00
59650;BME280;46162;57.568;25.814;2023-01-26T09:09:29;101184.03;;;-1.29;100.00
59650;BME280;46162;57.568;25.814;2023-01-26T09:11:57;101183.28;;;-1.31;100.00
59650;BME280;46162;57.568;25.814;2023-01-26T09:14:26;101179.69;;;-1.30;100.00
59650;BME280;46162;57.568;25.814;2023-01-26T09:16:55;101177.97;;;-1.31;100.00
59650;BME280;46162;57.568;25.814;2023-01-26T09:19:24;101170.03;;;-1.31;100.00
59650;BME280;46162;57.568;25.814;2023-01-26T09:21:55;101167.38;;;-1.31;100.00
59650;BME280;46162;57.568;25.814;2023-01-26T09:24:24;101169.13;;;-1.32;100.00
59650;BME280;46162;57.568;25.814;2023-01-26T09:26:52;101163.78;;;-1.30;100.00
59650;BME280;46162;57.568;25.814;2023-01-26T09:29:21;101171.72;;;-1.30;100.00
59650;BME280;46162;57.568;25.814;2023-01-26T09:31:49;101159.44;;;-1.31;100.00
59650;BME280;46162;57.568;25.814;2023-01-26T09:34:18;101156.78;;;-1.31;100.00
59650;BME280;46162;57.568;25.814;2023-01-26T09:36:47;101163.72;;;-1.28;100.00
59650;BME280;46162;57.568;25.814;2023-01-26T09:39:17;101162.00;;;-1.30;100.00
59650;BME280;46162;57.568;25.814;2023-01-26T09:41:57;101164.72;;;-1.31;100.00
59650;BME280;46162;57.568;25.814;2023-01-26T09:44:34;101170.03;;;-1.31;100.00
59650;BME280;46162;57.568;25.814;2023-01-26T09:47:11;101162.97;;;-1.32;100.00
59650;BME280;46162;57.568;25.814;2023-01-26T09:49:46;101160.28;;;-1.31;100.00
59650;BME280;46162;57.568;25.814;2023-01-26T09:52:21;101150.69;;;-1.33;100.00
59650;BME280;46162;57.568;25.814;2023-01-26T09:54:57;101143.53;;;-1.31;100.00
59650;BME280;46162;57.568;25.814;2023-01-26T09:57:31;101153.25;;;-1.32;100.00
59650;BME280;46162;57.568;25.814;2023-01-26T10:00:06;101140.09;;;-1.33;100.00
59650;BME280;46162;57.568;25.814;2023-01-26T10:02:47;101138.22;;;-1.31;100.00
59650;BME280;46162;57.568;25.814;2023-01-26T10:05:26;101148.84;;;-1.31;100.00
59650;BME280;46162;57.568;25.814;2023-01-26T10:08:08;101138.22;;;-1.31;100.00
59650;BME280;46162;57.568;25.814;2023-01-26T10:10:41;101140.94;;;-1.33;100.00
59650;BME280;46162;57.568;25.814;2023-01-26T10:13:13;101146.22;;;-1.33;100.00
59650;BME280;46162;57.568;25.814;2023-01-26T10:15:45;101143.53;;;-1.31;100.00
59650;BME280;46162;57.568;25.814;2023-01-26T10:18:17;101148.84;;;-1.31;100.00
59650;BME280;46162;57.568;25.814;2023-01-26T10:20:49;101140.88;;;-1.31;100.00
59650;BME280;46162;57.568;25.814;2023-01-26T10:23:22;101143.53;;;-1.31;100.00
59650;BME280;46162;57.568;25.814;2023-01-26T10:25:55;101133.78;;;-1.31;100.00
59650;BME280;46162;57.568;25.814;2023-01-26T10:28:31;101135.59;;;-1.31;100.00
59650;BME280;46162;57.568;25.814;2023-01-26T10:31:01;101132.00;;;-1.30;100.00
59650;BME280;46162;57.568;25.814;2023-01-26T10:33:33;101134.66;;;-1.30;100.00
59650;BME280;46162;57.568;25.814;2023-01-26T10:36:03;101129.34;;;-1.30;100.00
59650;BME280;46162;57.568;25.814;2023-01-26T10:38:40;101125.00;;;-1.31;100.00
59650;BME280;46162;57.568;25.814;2023-01-26T10:41:26;101122.34;;;-1.31;100.00
59650;BME280;46162;57.568;25.814;2023-01-26T10:43:57;101120.47;;;-1.29;100.00
59650;BME280;46162;57.568;25.814;2023-01-26T10:46:31;101124.84;;;-1.28;100.00
59650;BME280;46162;57.568;25.814;2023-01-26T10:49:02;101123.13;;;-1.29;100.00
59650;BME280;46162;57.568;25.814;2023-01-26T10:51:42;101116.09;;;-1.30;100.00
59650;BME280;46162;57.568;25.814;2023-01-26T10:54:16;101116.06;;;-1.28;100.00
59650;BME280;46162;57.568;25.814;2023-01-26T10:56:50;101117.81;;;-1.29;100.00
59650;BME280;46162;57.568;25.814;2023-01-26T10:59:24;101113.47;;;-1.30;100.00
59650;BME280;46162;57.568;25.814;2023-01-26T11:01:55;101112.59;;;-1.31;100.00
59650;BME280;46162;57.568;25.814;2023-01-26T11:04:24;101123.13;;;-1.29;100.00
59650;BME280;46162;57.568;25.814;2023-01-26T11:06:54;101116.91;;;-1.28;100.00
59650;BME280;46162;57.568;25.814;2023-01-26T11:09:26;101120.47;;;-1.29;100.00
59650;BME280;46162;57.568;25.814;2023-01-26T11:11:59;101107.34;;;-1.32;100.00
59650;BME280;46162;57.568;25.814;2023-01-26T11:14:29;101112.59;;;-1.31;100.00
59650;BME280;46162;57.568;25.814;2023-01-26T11:17:04;101109.09;;;-1.31;100.00
59650;BME280;46162;57.568;25.814;2023-01-26T11:19:53;101103.84;;;-1.33;100.00
59650;BME280;46162;57.568;25.814;2023-01-26T11:22:31;101100.25;;;-1.32;100.00
59650;BME280;46162;57.568;25.814;2023-01-26T11:25:10;101101.16;;;-1.31;100.00
59650;BME280;46162;57.568;25.814;2023-01-26T11:27:50;101102.00;;;-1.31;100.00
59650;BME280;46162;57.568;25.814;2023-01-26T11:30:58;101099.41;;;-1.32;100.00
59650;BME280;46162;57.568;25.814;2023-01-26T11:33:36;101095.91;;;-1.33;100.00
59650;BME280;46162;57.568;25.814;2023-01-26T11:36:12;101098.56;;;-1.33;100.00
59650;BME280;46162;57.568;25.814;2023-01-26T11:38:51;101088.81;;;-1.32;100.00
59650;BME280;46162;57.568;25.814;2023-01-26T11:41:37;101090.56;;;-1.31;100.00
59650;BME280;46162;57.568;25.814;2023-01-26T11:44:45;101090.56;;;-1.31;100.00
59650;BME280;46162;57.568;25.814;2023-01-26T11:47:25;101086.16;;;-1.32;100.00
59650;BME280;46162;57.568;25.814;2023-01-26T11:50:16;101089.66;;;-1.32;100.00
59650;BME280;46162;57.568;25.814;2023-01-26T11:52:54;101078.22;;;-1.32;100.00
59650;BME280;46162;57.568;25.814;2023-01-26T11:55:36;101079.06;;;-1.32;100.00
59650;BME280;46162;57.568;25.814;2023-01-26T11:58:19;101089.66;;;-1.32;100.00
59650;BME280;46162;57.568;25.814;2023-01-26T12:00:55;101083.50;;;-1.32;100.00
59650;BME280;46162;57.568;25.814;2023-01-26T12:03:28;101077.31;;;-1.31;100.00
59650;BME280;46162;57.568;25.814;2023-01-26T12:06:01;101074.66;;;-1.31;100.00
59650;BME280;46162;57.568;25.814;2023-01-26T12:08:36;101074.66;;;-1.31;100.00
59650;BME280;46162;57.568;25.814;2023-01-26T12:11:08;101087.91;;;-1.31;100.00
59650;BME280;46162;57.568;25.814;2023-01-26T12:13:58;101078.16;;;-1.31;100.00
59650;BME280;46162;57.568;25.814;2023-01-26T12:16:37;101076.38;;;-1.30;100.00
59650;BME280;46162;57.568;25.814;2023-01-26T12:19:14;101073.72;;;-1.30;100.00
59650;BME280;46162;57.568;25.814;2023-01-26T12:21:44;101075.50;;;-1.31;100.00
59650;BME280;46162;57.568;25.814;2023-01-26T12:24:18;101078.88;;;-1.27;100.00
59650;BME280;46162;57.568;25.814;2023-01-26T12:27:15;101073.66;;;-1.28;100.00
59650;BME280;46162;57.568;25.814;2023-01-26T12:29:48;101074.56;;;-1.30;100.00
59650;BME280;46162;57.568;25.814;2023-01-26T12:32:21;101068.41;;;-1.30;100.00
59650;BME280;46162;57.568;25.814;2023-01-26T12:34:51;101066.72;;;-1.31;100.00
59650;BME280;46162;57.568;25.814;2023-01-26T12:37:34;101074.66;;;-1.31;100.00
59650;BME280;46162;57.568;25.814;2023-01-26T12:40:16;101075.50;;;-1.31;100.00
59650;BME280;46162;57.568;25.814;2023-01-26T12:42:55;101075.50;;;-1.31;100.00
59650;BME280;46162;57.568;25.814;2023-01-26T12:45:30;101078.16;;;-1.31;100.00
59650;BME280;46162;57.568;25.814;2023-01-26T12:48:08;101078.16;;;-1.31;100.00
59650;BME280;46162;57.568;25.814;2023-01-26T12:50:42;101086.16;;;-1.32;100.00
59650;BME280;46162;57.568;25.814;2023-01-26T12:53:15;101086.16;;;-1.32;100.00
59650;BME280;46162;57.568;25.814;2023-01-26T12:55:50;101094.09;;;-1.32;100.00
59650;BME280;46162;57.568;25.814;2023-01-26T12:58:23;101089.66;;;-1.32;100.00
59650;BME280;46162;57.568;25.814;2023-01-26T13:01:01;101093.19;;;-1.31;100.00
59650;BME280;46162;57.568;25.814;2023-01-26T13:03:34;101090.56;;;-1.31;100.00
59650;BME280;46162;57.568;25.814;2023-01-26T13:06:18;101082.59;;;-1.31;100.00